createdAt,value
2017-10-23T00:01:39.547Z,7.10
2017-10-23T00:04:05.984Z,7.10
2017-10-23T00:06:32.435Z,7.00
2017-10-23T00:08:58.886Z,7.00
2017-10-23T00:11:26.819Z,7.00
2017-10-23T00:13:53.316Z,6.90
2017-10-23T00:16:20.517Z,7.00
2017-10-23T00:18:46.980Z,7.00
2017-10-23T00:21:13.440Z,7.00
2017-10-23T00:23:40.288Z,7.00
2017-10-23T00:26:06.760Z,6.90
2017-10-23T00:28:33.238Z,7.00
2017-10-23T00:30:59.711Z,7.00
2017-10-23T00:33:26.887Z,7.00
2017-10-23T00:35:53.342Z,7.00
2017-10-23T00:38:19.787Z,7.10
2017-10-23T00:40:46.310Z,7.10
2017-10-23T00:43:12.765Z,7.00
2017-10-23T00:45:39.240Z,7.00
2017-10-23T00:48:05.939Z,7.00
2017-10-23T00:50:32.393Z,7.00
2017-10-23T00:52:58.821Z,7.00
2017-10-23T00:55:25.287Z,7.00
2017-10-23T00:57:51.753Z,7.00
2017-10-23T01:00:18.268Z,6.90
2017-10-23T01:02:44.692Z,7.00
2017-10-23T01:05:11.233Z,7.00
2017-10-23T01:07:37.694Z,7.00
2017-10-23T01:10:04.148Z,7.00
2017-10-23T01:12:30.611Z,7.00
2017-10-23T01:14:57.818Z,7.00
2017-10-23T01:17:24.260Z,7.00
2017-10-23T01:19:50.684Z,7.00
2017-10-23T01:22:17.264Z,7.00
2017-10-23T01:24:43.920Z,7.00
2017-10-23T01:27:11.120Z,6.90
2017-10-23T01:29:37.655Z,6.90
2017-10-23T01:32:04.112Z,6.90
2017-10-23T01:34:30.596Z,6.90
2017-10-23T01:36:57.787Z,6.90
2017-10-23T01:39:24.300Z,6.90
2017-10-23T01:41:51.490Z,6.90
2017-10-23T01:44:18.135Z,6.90
2017-10-23T01:46:44.582Z,6.90
2017-10-23T01:49:11.007Z,6.90
2017-10-23T01:51:37.542Z,6.90
2017-10-23T01:54:03.980Z,6.90
2017-10-23T01:56:30.465Z,6.90
2017-10-23T01:58:56.908Z,6.90
2017-10-23T02:01:23.346Z,6.90
2017-10-23T02:03:49.787Z,6.90
2017-10-23T02:06:16.234Z,6.90
2017-10-23T02:08:43.538Z,6.90
2017-10-23T02:11:09.972Z,6.90
2017-10-23T02:13:36.451Z,6.90
2017-10-23T02:16:02.892Z,6.90
2017-10-23T02:18:29.349Z,6.80
2017-10-23T02:20:55.787Z,6.80
2017-10-23T02:23:22.961Z,6.80
2017-10-23T02:25:50.308Z,6.80
2017-10-23T02:28:17.500Z,6.90
2017-10-23T02:30:58.836Z,6.90
2017-10-23T02:33:25.986Z,6.90
2017-10-23T02:35:53.360Z,6.90
2017-10-23T02:38:20.546Z,6.90
2017-10-23T02:40:47.009Z,6.90
2017-10-23T02:43:13.484Z,6.90
2017-10-23T02:45:39.920Z,6.90
2017-10-23T02:48:06.399Z,6.90
2017-10-23T02:50:32.838Z,6.90
2017-10-23T02:52:59.349Z,6.90
2017-10-23T02:55:26.527Z,6.90
2017-10-23T02:57:52.961Z,6.80
2017-10-23T03:00:19.443Z,6.90
2017-10-23T03:02:46.127Z,6.90
2017-10-23T03:05:13.428Z,6.90
2017-10-23T03:07:39.839Z,6.90
2017-10-23T03:10:06.308Z,6.90
2017-10-23T03:12:32.782Z,6.90
2017-10-23T03:14:59.262Z,6.90
2017-10-23T03:17:25.848Z,6.90
2017-10-23T03:19:52.320Z,6.80
2017-10-23T03:22:19.496Z,6.80
2017-10-23T03:24:45.955Z,6.80
2017-10-23T03:27:12.426Z,6.80
2017-10-23T03:29:38.912Z,6.90
2017-10-23T03:32:05.427Z,6.90
2017-10-23T03:34:31.859Z,6.90
2017-10-23T03:36:58.324Z,6.80
2017-10-23T03:39:25.507Z,6.80
2017-10-23T03:41:51.931Z,6.80
2017-10-23T03:44:18.391Z,6.80
2017-10-23T03:46:44.819Z,6.80
2017-10-23T03:49:11.368Z,6.80
2017-10-23T03:51:37.853Z,6.80
2017-10-23T03:54:04.323Z,6.80
2017-10-23T03:56:30.769Z,6.80
2017-10-23T03:58:57.265Z,6.80
2017-10-23T04:01:23.750Z,6.80
2017-10-23T04:03:50.299Z,6.80
2017-10-23T04:06:16.988Z,6.70
2017-10-23T04:08:43.432Z,6.70
2017-10-23T04:11:09.968Z,6.70
2017-10-23T04:13:36.403Z,6.70
2017-10-23T04:16:02.857Z,6.60
2017-10-23T04:18:29.472Z,6.70
2017-10-23T04:20:55.909Z,6.60
2017-10-23T04:23:22.376Z,6.60
2017-10-23T04:25:48.840Z,6.60
2017-10-23T04:28:16.028Z,6.70
2017-10-23T04:30:42.479Z,6.70
2017-10-23T04:33:08.919Z,6.70
2017-10-23T04:35:35.380Z,6.70
2017-10-23T04:38:01.821Z,6.70
2017-10-23T04:40:29.739Z,6.70
2017-10-23T04:42:56.160Z,6.70
2017-10-23T04:45:23.352Z,6.80
2017-10-23T04:47:49.960Z,6.80
2017-10-23T04:50:16.396Z,6.80
2017-10-23T04:52:43.605Z,6.80
2017-10-23T04:55:10.067Z,6.70
2017-10-23T04:57:36.535Z,6.70
2017-10-23T05:00:02.999Z,6.80
2017-10-23T05:02:29.540Z,6.80
2017-10-23T05:04:55.996Z,6.80
2017-10-23T05:07:22.441Z,6.80
2017-10-23T05:09:48.894Z,6.80
2017-10-23T05:12:15.381Z,6.80
2017-10-23T05:14:41.811Z,6.80
2017-10-23T05:17:08.287Z,6.80
2017-10-23T05:19:34.708Z,6.80
2017-10-23T05:22:01.179Z,6.70
2017-10-23T05:24:27.610Z,6.70
2017-10-23T05:26:54.107Z,6.70
2017-10-23T05:29:20.581Z,6.70
2017-10-23T05:31:47.027Z,6.70
2017-10-23T05:34:13.523Z,6.70
2017-10-23T05:36:40.009Z,6.80
2017-10-23T05:39:06.491Z,6.90
2017-10-23T05:41:33.680Z,6.90
2017-10-23T05:44:00.111Z,6.90
2017-10-23T05:46:26.568Z,6.90
2017-10-23T05:48:53.019Z,6.90
2017-10-23T05:51:19.480Z,6.80
2017-10-23T05:53:46.060Z,6.80
2017-10-23T05:56:12.551Z,6.80
2017-10-23T05:58:39.057Z,6.80
2017-10-23T06:01:05.699Z,6.70
2017-10-23T06:03:32.199Z,6.70
2017-10-23T06:05:59.605Z,6.70
2017-10-23T06:08:31.398Z,6.70
2017-10-23T06:10:57.861Z,6.70
2017-10-23T06:13:25.081Z,6.70
2017-10-23T06:15:51.632Z,6.70
2017-10-23T06:18:18.112Z,6.70
2017-10-23T06:20:45.310Z,6.70
2017-10-23T06:23:11.872Z,6.80
2017-10-23T06:25:38.315Z,6.70
2017-10-23T06:28:04.776Z,6.70
2017-10-23T06:30:32.122Z,6.70
2017-10-23T06:32:58.715Z,6.70
2017-10-23T06:35:25.248Z,6.70
2017-10-23T06:37:51.775Z,6.80
2017-10-23T06:40:18.976Z,6.80
2017-10-23T06:42:45.419Z,6.80
2017-10-23T06:45:11.855Z,6.90
2017-10-23T06:47:38.308Z,6.80
2017-10-23T06:50:04.740Z,6.90
2017-10-23T06:52:31.292Z,6.90
2017-10-23T06:54:57.789Z,6.90
2017-10-23T06:57:24.308Z,7.00
2017-10-23T06:59:50.747Z,7.00
2017-10-23T07:02:17.208Z,7.10
2017-10-23T07:04:43.733Z,7.20
2017-10-23T07:07:10.239Z,7.30
2017-10-23T07:09:36.733Z,7.30
2017-10-23T07:12:03.268Z,7.40
2017-10-23T07:14:29.844Z,7.30
2017-10-23T07:16:56.283Z,7.30
2017-10-23T07:19:22.733Z,7.20
2017-10-23T07:21:49.160Z,7.20
2017-10-23T07:24:15.608Z,7.20
2017-10-23T07:26:42.096Z,7.10
2017-10-23T07:29:08.544Z,7.10
2017-10-23T07:31:35.014Z,7.20
2017-10-23T07:34:01.433Z,7.20
2017-10-23T07:36:27.888Z,7.20
2017-10-23T07:38:54.412Z,7.10
2017-10-23T07:41:20.884Z,7.10
2017-10-23T07:43:47.408Z,7.10
2017-10-23T07:46:13.878Z,7.00
2017-10-23T07:48:41.079Z,7.00
2017-10-23T07:51:07.680Z,7.00
2017-10-23T07:53:34.891Z,7.20
2017-10-23T07:56:02.224Z,7.40
2017-10-23T07:58:29.017Z,7.30
2017-10-23T08:00:55.536Z,7.40
2017-10-23T08:03:21.997Z,7.40
2017-10-23T08:05:48.448Z,7.40
2017-10-23T08:08:14.880Z,7.40
2017-10-23T08:10:41.494Z,7.40
2017-10-23T08:13:07.944Z,7.50
2017-10-23T08:15:34.414Z,7.70
2017-10-23T08:18:01.654Z,7.60
2017-10-23T08:20:28.240Z,7.60
2017-10-23T08:22:54.733Z,7.80
2017-10-23T08:25:21.580Z,8.50
2017-10-23T08:27:48.116Z,8.60
2017-10-23T08:30:14.571Z,8.50
2017-10-23T08:32:41.060Z,8.40
2017-10-23T08:35:07.595Z,8.60
2017-10-23T08:37:34.824Z,8.60
2017-10-23T08:40:02.037Z,8.30
2017-10-23T08:42:28.506Z,8.30
2017-10-23T08:44:54.937Z,8.20
2017-10-23T08:47:21.407Z,8.10
2017-10-23T08:49:48.608Z,7.70
2017-10-23T08:52:15.024Z,7.70
2017-10-23T08:54:41.475Z,7.60
2017-10-23T08:57:07.918Z,7.60
2017-10-23T08:59:34.394Z,7.70
2017-10-23T09:02:00.838Z,7.80
2017-10-23T09:04:28.132Z,7.80
2017-10-23T09:06:54.594Z,7.80
2017-10-23T09:09:21.006Z,8.00
2017-10-23T09:11:47.504Z,8.10
2017-10-23T09:14:14.121Z,8.20
2017-10-23T09:16:40.536Z,8.30
2017-10-23T09:19:07.007Z,8.30
2017-10-23T09:21:33.459Z,8.20
2017-10-23T09:23:59.935Z,8.20
2017-10-23T09:26:26.396Z,8.30
2017-10-23T09:28:52.830Z,8.20
2017-10-23T09:31:19.310Z,8.30
2017-10-23T09:33:45.812Z,8.20
2017-10-23T09:36:12.292Z,8.20
2017-10-23T09:38:38.712Z,8.30
2017-10-23T09:41:05.150Z,8.30
2017-10-23T09:43:31.618Z,8.40
2017-10-23T09:45:58.068Z,8.50
2017-10-23T09:48:25.264Z,8.50
2017-10-23T09:50:51.851Z,8.50
2017-10-23T09:53:18.319Z,8.60
2017-10-23T09:55:45.505Z,8.70
2017-10-23T09:58:11.941Z,8.60
2017-10-23T10:00:38.411Z,8.70
2017-10-23T10:03:04.852Z,8.80
2017-10-23T10:05:31.331Z,9.00
2017-10-23T10:07:58.530Z,9.40
2017-10-23T10:10:24.995Z,9.40
2017-10-23T10:12:51.477Z,9.50
2017-10-23T10:15:17.953Z,9.50
2017-10-23T10:17:44.495Z,9.30
2017-10-23T10:20:10.976Z,9.30
2017-10-23T10:22:38.228Z,9.90
2017-10-23T10:25:05.488Z,10.20
2017-10-23T10:27:32.765Z,10.30
2017-10-23T10:29:59.311Z,10.30
2017-10-23T10:32:25.769Z,10.50
2017-10-23T10:34:52.236Z,10.50
2017-10-23T10:37:18.708Z,11.10
2017-10-23T10:39:46.198Z,11.70
2017-10-23T10:42:12.626Z,11.70
2017-10-23T10:44:39.075Z,11.90
2017-10-23T10:47:05.557Z,11.80
2017-10-23T10:49:33.692Z,10.90
2017-10-23T10:52:00.143Z,10.90
2017-10-23T10:54:26.571Z,10.70
2017-10-23T10:56:53.463Z,10.20
2017-10-23T10:59:19.904Z,9.90
2017-10-23T11:01:46.387Z,9.70
2017-10-23T11:04:12.853Z,9.60
2017-10-23T11:06:39.375Z,9.40
2017-10-23T11:09:07.342Z,9.30
2017-10-23T11:11:33.912Z,9.30
2017-10-23T11:14:00.592Z,9.40
2017-10-23T11:16:27.057Z,9.60
2017-10-23T11:18:53.644Z,9.70
2017-10-23T11:21:20.168Z,9.80
2017-10-23T11:23:46.664Z,9.90
2017-10-23T11:26:14.011Z,10.00
2017-10-23T11:28:40.510Z,9.90
2017-10-23T11:31:07.062Z,9.90
2017-10-23T11:33:33.611Z,10.10
2017-10-23T11:36:00.194Z,10.10
2017-10-23T11:38:27.365Z,9.80
2017-10-23T11:40:53.897Z,9.80
2017-10-23T11:43:20.413Z,9.70
2017-10-23T11:45:47.208Z,9.60
2017-10-23T11:48:13.899Z,9.50
2017-10-23T11:50:40.389Z,9.50
2017-10-23T11:53:06.944Z,9.50
2017-10-23T11:55:33.415Z,9.40
2017-10-23T11:57:59.937Z,9.30
2017-10-23T12:00:26.410Z,9.20
2017-10-23T12:02:53.664Z,9.00
2017-10-23T12:05:20.841Z,8.90
2017-10-23T12:07:47.333Z,8.90
2017-10-23T12:10:13.791Z,8.90
2017-10-23T12:12:40.299Z,8.90
2017-10-23T12:15:06.751Z,8.90
2017-10-23T12:17:33.292Z,9.00
2017-10-23T12:19:59.883Z,9.00
2017-10-23T12:22:27.081Z,9.30
2017-10-23T12:24:53.531Z,9.40
2017-10-23T12:27:20.494Z,9.50
2017-10-23T12:29:46.953Z,9.60
2017-10-23T12:32:14.236Z,9.80
2017-10-23T12:34:40.715Z,9.80
2017-10-23T12:37:07.176Z,9.80
2017-10-23T12:39:33.805Z,9.90
2017-10-23T12:42:01.319Z,9.80
2017-10-23T12:44:27.900Z,9.70
2017-10-23T12:46:54.352Z,9.60
2017-10-23T12:49:20.787Z,9.60
2017-10-23T12:51:47.344Z,9.50
2017-10-23T12:54:14.045Z,9.40
2017-10-23T12:56:40.516Z,9.40
2017-10-23T12:59:07.813Z,9.70
2017-10-23T13:01:34.313Z,9.70
2017-10-23T13:04:00.760Z,9.80
2017-10-23T13:06:27.221Z,9.90
2017-10-23T13:08:54.468Z,10.00
2017-10-23T13:11:21.636Z,10.20
2017-10-23T13:13:48.859Z,10.40
2017-10-23T13:16:15.315Z,10.40
2017-10-23T13:18:42.516Z,10.10
2017-10-23T13:21:08.979Z,10.10
2017-10-23T13:23:35.464Z,10.10
2017-10-23T13:26:02.344Z,9.90
2017-10-23T13:28:28.887Z,9.70
2017-10-23T13:30:55.332Z,9.60
2017-10-23T13:33:21.801Z,9.60
2017-10-23T13:35:48.248Z,9.50
2017-10-23T13:38:15.609Z,9.30
2017-10-23T13:40:42.108Z,9.30
2017-10-23T13:43:08.628Z,9.30
2017-10-23T13:45:35.078Z,9.20
2017-10-23T13:48:01.519Z,9.20
2017-10-23T13:50:28.003Z,9.20
2017-10-23T13:52:54.477Z,9.30
2017-10-23T13:55:20.954Z,9.30
2017-10-23T13:57:47.405Z,9.30
2017-10-23T14:00:13.910Z,9.40
2017-10-23T14:02:40.364Z,9.40
2017-10-23T14:05:06.833Z,9.50
2017-10-23T14:07:34.201Z,9.50
2017-10-23T14:10:00.662Z,9.50
2017-10-23T14:12:27.902Z,9.40
2017-10-23T14:14:55.076Z,9.40
2017-10-23T14:17:22.370Z,9.50
2017-10-23T14:19:48.807Z,9.50
2017-10-23T14:22:15.284Z,9.60
2017-10-23T14:24:41.745Z,9.60
2017-10-23T14:27:09.099Z,9.50
2017-10-23T14:29:36.302Z,9.50
2017-10-23T14:32:02.779Z,9.50
2017-10-23T14:34:29.312Z,9.40
2017-10-23T14:36:55.802Z,9.30
2017-10-23T14:39:22.293Z,9.30
2017-10-23T14:41:48.753Z,9.20
2017-10-23T14:44:15.944Z,9.20
2017-10-23T14:46:42.433Z,9.10
2017-10-23T14:49:08.898Z,9.20
2017-10-23T14:51:36.124Z,9.30
2017-10-23T14:54:02.595Z,9.10
2017-10-23T14:59:31.810Z,9.30
2017-10-23T15:01:58.279Z,9.40
2017-10-23T15:04:24.802Z,9.40
2017-10-23T15:06:51.264Z,9.50
2017-10-23T15:09:17.782Z,9.40
2017-10-23T15:11:44.305Z,9.40
2017-10-23T15:14:10.756Z,9.30
2017-10-23T15:16:37.357Z,9.10
2017-10-23T15:19:04.572Z,8.70
2017-10-23T15:21:31.879Z,8.70
2017-10-23T15:23:59.118Z,8.50
2017-10-23T15:26:25.656Z,8.50
2017-10-23T15:29:07.026Z,8.40
2017-10-23T15:31:33.544Z,8.30
2017-10-23T15:34:00.148Z,8.50
2017-10-23T15:36:27.343Z,8.50
2017-10-23T15:38:53.900Z,8.50
2017-10-23T15:41:20.379Z,8.50
2017-10-23T15:43:47.609Z,8.40
2017-10-23T15:46:14.123Z,8.40
2017-10-23T15:48:40.594Z,8.50
2017-10-23T15:51:07.114Z,8.40
2017-10-23T15:53:33.633Z,8.50
2017-10-23T15:56:00.286Z,8.50
2017-10-23T15:58:26.762Z,8.50
2017-10-23T16:00:53.223Z,8.50
2017-10-23T16:03:20.428Z,8.40
2017-10-23T16:05:47.003Z,8.40
2017-10-23T16:08:13.629Z,8.40
2017-10-23T16:10:40.132Z,8.30
2017-10-23T16:13:06.622Z,8.30
2017-10-23T16:15:33.084Z,8.30
2017-10-23T16:18:00.398Z,8.40
2017-10-23T16:20:26.890Z,8.30
2017-10-23T16:22:53.395Z,8.40
2017-10-23T16:25:20.649Z,8.40
2017-10-23T16:27:47.186Z,8.30
2017-10-23T16:30:13.803Z,8.30
2017-10-23T16:32:40.257Z,8.30
2017-10-23T16:35:06.733Z,8.40
2017-10-23T16:37:34.878Z,8.40
2017-10-23T16:40:01.440Z,8.30
2017-10-23T16:42:28.706Z,8.40
2017-10-23T16:44:55.927Z,8.30
2017-10-23T16:47:22.383Z,8.30
2017-10-23T16:49:48.861Z,8.30
2017-10-23T16:52:15.328Z,8.30
2017-10-23T16:54:41.964Z,8.40
2017-10-23T16:57:08.451Z,8.40
2017-10-23T16:59:34.932Z,8.40
2017-10-23T17:02:01.478Z,8.40
2017-10-23T17:04:27.983Z,8.30
2017-10-23T17:06:55.216Z,8.50
2017-10-23T17:09:21.815Z,8.50
2017-10-23T17:11:48.322Z,8.50
2017-10-23T17:14:15.716Z,8.40
2017-10-23T17:16:42.435Z,8.40
2017-10-23T17:19:09.818Z,8.30
2017-10-23T17:21:36.330Z,8.30
2017-10-23T17:24:07.022Z,8.30
2017-10-23T17:26:33.626Z,8.30
2017-10-23T17:29:00.185Z,8.30
2017-10-23T17:31:26.648Z,8.30
2017-10-23T17:33:53.179Z,8.30
2017-10-23T17:36:19.845Z,8.30
2017-10-23T17:38:46.458Z,8.30
2017-10-23T17:41:13.008Z,8.30
2017-10-23T17:43:39.690Z,8.30
2017-10-23T17:46:06.895Z,8.20
2017-10-23T17:48:33.389Z,8.10
2017-10-23T17:51:00.686Z,8.30
2017-10-23T17:53:27.174Z,8.20
2017-10-23T17:55:53.666Z,8.30
2017-10-23T17:58:20.959Z,8.30
2017-10-23T18:00:47.464Z,8.40
2017-10-23T18:03:14.156Z,8.40
2017-10-23T18:05:40.672Z,8.30
2017-10-23T18:08:07.116Z,8.40
2017-10-23T18:10:33.646Z,8.40
2017-10-23T18:13:00.261Z,8.40
2017-10-23T18:15:26.763Z,8.40
2017-10-23T18:17:53.270Z,8.50
2017-10-23T18:20:34.583Z,8.50
2017-10-23T18:23:01.847Z,8.50
2017-10-23T18:25:36.067Z,8.60
2017-10-23T18:28:03.334Z,8.50
2017-10-23T18:30:30.562Z,8.60
2017-10-23T18:32:57.094Z,8.50
2017-10-23T18:35:24.746Z,8.60
2017-10-23T18:37:51.384Z,8.60
2017-10-23T18:40:18.011Z,8.70
2017-10-23T18:42:44.634Z,8.60
2017-10-23T18:45:11.148Z,8.70
2017-10-23T18:47:37.840Z,8.70
2017-10-23T18:50:04.337Z,8.70
2017-10-23T18:52:30.816Z,8.70
2017-10-23T18:54:57.349Z,8.70
2017-10-23T18:57:23.785Z,8.70
2017-10-23T18:59:50.283Z,8.60
2017-10-23T19:02:16.809Z,8.60
2017-10-23T19:04:43.351Z,8.70
2017-10-23T19:07:09.821Z,8.70
2017-10-23T19:09:37.045Z,8.70
2017-10-23T19:12:03.568Z,8.70
2017-10-23T19:14:30.201Z,8.70
2017-10-23T19:16:56.691Z,8.70
2017-10-23T19:19:23.284Z,8.70
2017-10-23T19:21:49.815Z,8.70
2017-10-23T19:24:16.266Z,8.70
2017-10-23T19:26:42.752Z,8.60
2017-10-23T19:29:09.284Z,8.60
2017-10-23T19:31:35.752Z,8.60
2017-10-23T19:34:02.989Z,8.60
2017-10-23T19:36:29.460Z,8.60
2017-10-23T19:38:55.940Z,8.60
2017-10-23T19:41:22.424Z,8.60
2017-10-23T19:43:49.749Z,8.60
2017-10-23T19:46:16.254Z,8.60
2017-10-23T19:48:42.672Z,8.60
2017-10-23T19:51:09.192Z,8.60
2017-10-23T19:53:36.453Z,8.60
2017-10-23T19:56:03.699Z,8.60
2017-10-23T19:58:30.986Z,8.60
2017-10-23T20:00:57.624Z,8.60
2017-10-23T20:03:24.087Z,8.60
2017-10-23T20:05:50.658Z,8.60
2017-10-23T20:08:17.223Z,8.60
2017-10-23T20:10:44.681Z,8.60
2017-10-23T20:13:11.255Z,8.50
2017-10-23T20:15:37.895Z,8.50
2017-10-23T20:18:04.477Z,8.50
2017-10-23T20:20:31.204Z,8.60
2017-10-23T20:22:57.910Z,8.70
2017-10-23T20:25:32.300Z,8.70
2017-10-23T20:27:58.901Z,8.60
2017-10-23T20:30:25.420Z,8.60
2017-10-23T20:32:52.679Z,8.50
2017-10-23T20:35:20.926Z,8.50
2017-10-23T20:37:47.455Z,8.50
2017-10-23T20:40:13.996Z,8.60
2017-10-23T20:42:40.616Z,8.50
2017-10-23T20:45:07.165Z,8.50
2017-10-23T20:47:33.665Z,8.50
2017-10-23T20:50:01.006Z,8.50
2017-10-23T20:52:28.493Z,8.50
2017-10-23T20:54:55.042Z,8.50
2017-10-23T20:57:21.549Z,8.50
2017-10-23T20:59:48.057Z,8.40
2017-10-23T21:02:14.533Z,8.50
2017-10-23T21:04:41.722Z,8.50
2017-10-23T21:07:08.258Z,8.50
2017-10-23T21:09:34.720Z,8.60
2017-10-23T21:12:01.148Z,8.50
2017-10-23T21:14:27.815Z,8.60
2017-10-23T21:16:54.281Z,8.60
2017-10-23T21:19:20.784Z,8.60
2017-10-23T21:21:47.224Z,8.60
2017-10-23T21:24:13.729Z,8.60
2017-10-23T21:26:40.346Z,8.60
2017-10-23T21:29:06.850Z,8.60
2017-10-23T21:31:33.413Z,8.60
2017-10-23T21:33:59.852Z,8.60
2017-10-23T21:36:26.365Z,8.60
2017-10-23T21:38:52.832Z,8.50
2017-10-23T21:41:20.085Z,8.50
2017-10-23T21:43:46.575Z,8.50
2017-10-23T21:46:13.057Z,8.50
2017-10-23T21:48:39.722Z,8.50
2017-10-23T21:51:06.215Z,8.50
2017-10-23T21:53:32.719Z,8.50
2017-10-23T21:56:00.034Z,8.50
2017-10-23T21:58:26.518Z,8.50
2017-10-23T22:00:53.866Z,8.50
2017-10-23T22:03:21.185Z,8.50
2017-10-23T22:05:47.816Z,8.50
2017-10-23T22:08:14.348Z,8.50
2017-10-23T22:10:40.827Z,8.40
2017-10-23T22:13:07.268Z,8.50
2017-10-23T22:15:33.815Z,8.50
2017-10-23T22:18:00.263Z,8.40
2017-10-23T22:20:26.695Z,8.40
2017-10-23T22:22:53.287Z,8.40
2017-10-23T22:25:19.719Z,8.40
2017-10-23T22:27:46.232Z,8.40
2017-10-23T22:30:13.412Z,8.40
2017-10-23T22:32:39.853Z,8.40
2017-10-23T22:35:06.348Z,8.40
2017-10-23T22:37:32.777Z,8.40
2017-10-23T22:39:59.264Z,8.40
2017-10-23T22:42:25.707Z,8.50
2017-10-23T22:44:52.160Z,8.50
2017-10-23T22:47:18.634Z,8.50
2017-10-23T22:49:45.199Z,8.50
2017-10-23T22:52:12.385Z,8.50
2017-10-23T22:54:38.831Z,8.50
2017-10-23T22:57:05.300Z,8.50
2017-10-23T22:59:31.784Z,8.50
2017-10-23T23:01:58.484Z,8.50
2017-10-23T23:04:24.935Z,8.50
2017-10-23T23:06:51.438Z,8.50
2017-10-23T23:09:17.916Z,8.50
2017-10-23T23:11:44.467Z,8.50
2017-10-23T23:14:10.915Z,8.50
2017-10-23T23:16:38.124Z,8.50
2017-10-23T23:19:04.576Z,8.50
2017-10-23T23:21:31.025Z,8.50
2017-10-23T23:23:57.476Z,8.50
2017-10-23T23:26:23.988Z,8.50
2017-10-23T23:28:50.788Z,8.50
2017-10-23T23:31:17.244Z,8.60
2017-10-23T23:33:43.715Z,8.60
2017-10-23T23:36:10.243Z,8.50
2017-10-23T23:38:36.708Z,8.60
2017-10-23T23:41:03.161Z,8.60
2017-10-23T23:43:29.628Z,8.60
2017-10-23T23:45:56.811Z,8.60
2017-10-23T23:48:23.299Z,8.50
2017-10-23T23:50:49.736Z,8.60
2017-10-23T23:53:16.256Z,8.60
2017-10-23T23:55:42.683Z,8.70
2017-10-23T23:58:09.124Z,8.60
